sensor_id;sensor_type;location;lat;lon;timestamp;P1;durP1;ratioP1;P2;durP2;ratioP2
32812;SDS011;19162;48.254;11.454;2022-09-01T00:02:57;18.75;;;17.25;;
32812;SDS011;19162;48.254;11.454;2022-09-01T00:05:57;18.90;;;17.30;;
32812;SDS011;19162;48.254;11.454;2022-09-01T00:08:59;20.00;;;18.50;;
32812;SDS011;19162;48.254;11.454;2022-09-01T00:11:59;19.20;;;17.77;;
32812;SDS011;19162;48.254;11.454;2022-09-01T00:15:00;21.15;;;19.10;;
32812;SDS011;19162;48.254;11.454;2022-09-01T00:18:00;19.47;;;17.97;;
32812;SDS011;19162;48.254;11.454;2022-09-01T00:21:00;19.20;;;17.80;;
32812;SDS011;19162;48.254;11.454;2022-09-01T00:24:01;20.60;;;18.80;;
32812;SDS011;19162;48.254;11.454;2022-09-01T00:27:01;20.70;;;19.10;;
32812;SDS011;19162;48.254;11.454;2022-09-01T00:30:02;22.05;;;20.25;;
32812;SDS011;19162;48.254;11.454;2022-09-01T00:33:02;22.05;;;20.13;;
32812;SDS011;19162;48.254;11.454;2022-09-01T00:36:03;23.37;;;21.63;;
32812;SDS011;19162;48.254;11.454;2022-09-01T00:39:04;22.15;;;20.45;;
32812;SDS011;19162;48.254;11.454;2022-09-01T00:42:05;23.42;;;21.42;;
32812;SDS011;19162;48.254;11.454;2022-09-01T00:45:06;22.92;;;21.13;;
32812;SDS011;19162;48.254;11.454;2022-09-01T00:48:07;23.17;;;21.27;;
32812;SDS011;19162;48.254;11.454;2022-09-01T00:51:08;22.42;;;20.42;;
32812;SDS011;19162;48.254;11.454;2022-09-01T00:54:10;22.40;;;20.70;;
32812;SDS011;19162;48.254;11.454;2022-09-01T00:57:12;24.35;;;22.38;;
32812;SDS011;19162;48.254;11.454;2022-09-01T01:00:15;24.70;;;22.57;;
32812;SDS011;19162;48.254;11.454;2022-09-01T01:03:16;23.93;;;21.90;;
32812;SDS011;19162;48.254;11.454;2022-09-01T01:06:16;24.53;;;22.73;;
32812;SDS011;19162;48.254;11.454;2022-09-01T01:09:19;24.23;;;22.42;;
32812;SDS011;19162;48.254;11.454;2022-09-01T01:12:20;25.73;;;23.45;;
32812;SDS011;19162;48.254;11.454;2022-09-01T01:15:21;12.13;;;11.23;;
32812;SDS011;19162;48.254;11.454;2022-09-01T01:18:21;7.30;;;6.70;;
32812;SDS011;19162;48.254;11.454;2022-09-01T01:21:25;23.42;;;21.73;;
32812;SDS011;19162;48.254;11.454;2022-09-01T01:24:47;25.13;;;23.20;;
32812;SDS011;19162;48.254;11.454;2022-09-01T01:27:47;27.25;;;25.13;;
32812;SDS011;19162;48.254;11.454;2022-09-01T01:30:48;26.35;;;24.25;;
32812;SDS011;19162;48.254;11.454;2022-09-01T01:33:53;27.13;;;25.02;;
32812;SDS011;19162;48.254;11.454;2022-09-01T01:36:53;9.55;;;8.75;;
32812;SDS011;19162;48.254;11.454;2022-09-01T01:39:54;24.65;;;22.67;;
32812;SDS011;19162;48.254;11.454;2022-09-01T01:42:54;27.13;;;25.02;;
32812;SDS011;19162;48.254;11.454;2022-09-01T01:45:56;25.67;;;23.67;;
32812;SDS011;19162;48.254;11.454;2022-09-01T01:49:01;27.23;;;25.15;;
32812;SDS011;19162;48.254;11.454;2022-09-01T01:52:02;26.73;;;24.65;;
32812;SDS011;19162;48.254;11.454;2022-09-01T01:55:03;14.90;;;13.80;;
32812;SDS011;19162;48.254;11.454;2022-09-01T01:58:10;9.23;;;8.52;;
32812;SDS011;19162;48.254;11.454;2022-09-01T02:01:10;26.88;;;24.67;;
32812;SDS011;19162;48.254;11.454;2022-09-01T02:04:11;25.60;;;23.60;;
32812;SDS011;19162;48.254;11.454;2022-09-01T02:07:15;26.48;;;24.48;;
32812;SDS011;19162;48.254;11.454;2022-09-01T02:10:16;27.73;;;25.55;;
32812;SDS011;19162;48.254;11.454;2022-09-01T02:13:18;26.95;;;24.65;;
32812;SDS011;19162;48.254;11.454;2022-09-01T02:16:19;10.77;;;9.93;;
32812;SDS011;19162;48.254;11.454;2022-09-01T02:19:20;24.83;;;23.03;;
32812;SDS011;19162;48.254;11.454;2022-09-01T02:22:20;25.38;;;23.48;;
32812;SDS011;19162;48.254;11.454;2022-09-01T02:25:21;25.70;;;23.65;;
32812;SDS011;19162;48.254;11.454;2022-09-01T02:28:22;26.88;;;24.88;;
32812;SDS011;19162;48.254;11.454;2022-09-01T02:31:22;26.95;;;24.92;;
32812;SDS011;19162;48.254;11.454;2022-09-01T02:34:23;20.33;;;18.83;;
32812;SDS011;19162;48.254;11.454;2022-09-01T02:37:24;10.15;;;9.32;;
32812;SDS011;19162;48.254;11.454;2022-09-01T02:40:25;24.25;;;22.33;;
32812;SDS011;19162;48.254;11.454;2022-09-01T02:43:29;25.15;;;22.95;;
32812;SDS011;19162;48.254;11.454;2022-09-01T02:46:30;25.52;;;23.63;;
32812;SDS011;19162;48.254;11.454;2022-09-01T02:49:30;25.70;;;23.67;;
32812;SDS011;19162;48.254;11.454;2022-09-01T02:52:31;26.15;;;24.05;;
32812;SDS011;19162;48.254;11.454;2022-09-01T02:55:37;15.00;;;13.95;;
32812;SDS011;19162;48.254;11.454;2022-09-01T02:58:37;7.90;;;7.32;;
32812;SDS011;19162;48.254;11.454;2022-09-01T03:01:45;27.90;;;25.80;;
32812;SDS011;19162;48.254;11.454;2022-09-01T03:04:46;27.55;;;25.45;;
32812;SDS011;19162;48.254;11.454;2022-09-01T03:07:52;27.27;;;24.92;;
32812;SDS011;19162;48.254;11.454;2022-09-01T03:10:55;26.75;;;24.77;;
32812;SDS011;19162;48.254;11.454;2022-09-01T03:13:57;26.65;;;24.65;;
32812;SDS011;19162;48.254;11.454;2022-09-01T03:16:57;11.38;;;10.57;;
32812;SDS011;19162;48.254;11.454;2022-09-01T03:19:59;26.52;;;24.50;;
32812;SDS011;19162;48.254;11.454;2022-09-01T03:23:00;27.60;;;25.48;;
32812;SDS011;19162;48.254;11.454;2022-09-01T03:26:00;27.65;;;25.48;;
32812;SDS011;19162;48.254;11.454;2022-09-01T03:29:01;27.60;;;25.35;;
32812;SDS011;19162;48.254;11.454;2022-09-01T03:32:01;27.90;;;25.80;;
32812;SDS011;19162;48.254;11.454;2022-09-01T03:35:02;17.50;;;16.10;;
32812;SDS011;19162;48.254;11.454;2022-09-01T03:38:02;8.90;;;8.30;;
32812;SDS011;19162;48.254;11.454;2022-09-01T03:41:03;26.63;;;24.52;;
32812;SDS011;19162;48.254;11.454;2022-09-01T03:44:04;28.00;;;25.88;;
32812;SDS011;19162;48.254;11.454;2022-09-01T03:47:05;28.50;;;26.40;;
32812;SDS011;19162;48.254;11.454;2022-09-01T03:50:10;27.52;;;25.45;;
32812;SDS011;19162;48.254;11.454;2022-09-01T03:53:19;27.33;;;25.25;;
32812;SDS011;19162;48.254;11.454;2022-09-01T03:56:22;12.00;;;11.18;;
32812;SDS011;19162;48.254;11.454;2022-09-01T03:59:23;27.85;;;25.35;;
32812;SDS011;19162;48.254;11.454;2022-09-01T04:02:24;27.27;;;25.17;;
32812;SDS011;19162;48.254;11.454;2022-09-01T04:05:29;28.13;;;25.92;;
32812;SDS011;19162;48.254;11.454;2022-09-01T04:08:30;29.05;;;26.63;;
32812;SDS011;19162;48.254;11.454;2022-09-01T04:11:30;28.02;;;25.35;;
32812;SDS011;19162;48.254;11.454;2022-09-01T04:14:32;22.67;;;20.77;;
32812;SDS011;19162;48.254;11.454;2022-09-01T04:17:33;10.18;;;9.48;;
32812;SDS011;19162;48.254;11.454;2022-09-01T04:20:53;26.52;;;24.55;;
32812;SDS011;19162;48.254;11.454;2022-09-01T04:23:55;26.08;;;24.17;;
32812;SDS011;19162;48.254;11.454;2022-09-01T04:27:04;27.10;;;24.95;;
32812;SDS011;19162;48.254;11.454;2022-09-01T04:30:08;27.73;;;25.52;;
32812;SDS011;19162;48.254;11.454;2022-09-01T04:33:10;27.08;;;24.77;;
32812;SDS011;19162;48.254;11.454;2022-09-01T04:39:18;19.08;;;17.52;;
32812;SDS011;19162;48.254;11.454;2022-09-01T04:42:19;27.75;;;25.73;;
32812;SDS011;19162;48.254;11.454;2022-09-01T04:45:20;26.48;;;24.27;;
32812;SDS011;19162;48.254;11.454;2022-09-01T04:48:26;26.15;;;24.15;;
32812;SDS011;19162;48.254;11.454;2022-09-01T04:51:27;26.90;;;24.80;;
32812;SDS011;19162;48.254;11.454;2022-09-01T04:54:27;18.80;;;17.40;;
32812;SDS011;19162;48.254;11.454;2022-09-01T04:57:27;8.40;;;7.73;;
32812;SDS011;19162;48.254;11.454;2022-09-01T05:00:28;25.45;;;23.45;;
32812;SDS011;19162;48.254;11.454;2022-09-01T05:03:31;26.23;;;23.33;;
32812;SDS011;19162;48.254;11.454;2022-09-01T05:06:31;25.83;;;23.87;;
32812;SDS011;19162;48.254;11.454;2022-09-01T05:09:33;26.75;;;24.70;;
32812;SDS011;19162;48.254;11.454;2022-09-01T05:12:36;23.40;;;21.35;;
32812;SDS011;19162;48.254;11.454;2022-09-01T05:15:38;21.98;;;20.35;;
32812;SDS011;19162;48.254;11.454;2022-09-01T05:18:39;25.85;;;23.85;;
32812;SDS011;19162;48.254;11.454;2022-09-01T05:21:41;12.00;;;11.00;;
32812;SDS011;19162;48.254;11.454;2022-09-01T05:24:44;23.73;;;21.77;;
32812;SDS011;19162;48.254;11.454;2022-09-01T05:27:45;25.40;;;23.30;;
32812;SDS011;19162;48.254;11.454;2022-09-01T05:33:49;27.17;;;24.95;;
32812;SDS011;19162;48.254;11.454;2022-09-01T05:36:49;25.70;;;23.70;;
32812;SDS011;19162;48.254;11.454;2022-09-01T05:39:50;24.23;;;22.33;;
32812;SDS011;19162;48.254;11.454;2022-09-01T05:42:51;23.05;;;21.05;;
32812;SDS011;19162;48.254;11.454;2022-09-01T05:45:54;22.88;;;21.08;;
32812;SDS011;19162;48.254;11.454;2022-09-01T05:48:55;22.08;;;20.08;;
32812;SDS011;19162;48.254;11.454;2022-09-01T05:51:56;21.33;;;19.48;;
32812;SDS011;19162;48.254;11.454;2022-09-01T05:54:57;20.80;;;19.15;;
32812;SDS011;19162;48.254;11.454;2022-09-01T05:57:59;16.85;;;15.45;;
32812;SDS011;19162;48.254;11.454;2022-09-01T06:00:59;21.35;;;19.67;;
32812;SDS011;19162;48.254;11.454;2022-09-01T06:04:00;21.65;;;20.08;;
32812;SDS011;19162;48.254;11.454;2022-09-01T06:07:03;23.00;;;20.95;;
32812;SDS011;19162;48.254;11.454;2022-09-01T06:10:07;22.15;;;20.45;;
32812;SDS011;19162;48.254;11.454;2022-09-01T06:13:07;22.77;;;20.77;;
32812;SDS011;19162;48.254;11.454;2022-09-01T06:16:08;21.63;;;20.02;;
32812;SDS011;19162;48.254;11.454;2022-09-01T06:19:10;23.35;;;21.40;;
32812;SDS011;19162;48.254;11.454;2022-09-01T06:22:11;21.70;;;20.00;;
32812;SDS011;19162;48.254;11.454;2022-09-01T06:25:11;22.07;;;20.40;;
32812;SDS011;19162;48.254;11.454;2022-09-01T06:28:13;20.92;;;19.05;;
32812;SDS011;19162;48.254;11.454;2022-09-01T06:31:14;19.65;;;18.15;;
32812;SDS011;19162;48.254;11.454;2022-09-01T06:34:14;20.87;;;19.17;;
32812;SDS011;19162;48.254;11.454;2022-09-01T06:37:17;20.20;;;18.50;;
32812;SDS011;19162;48.254;11.454;2022-09-01T06:40:21;20.45;;;18.88;;
32812;SDS011;19162;48.254;11.454;2022-09-01T06:46:24;19.92;;;18.40;;
32812;SDS011;19162;48.254;11.454;2022-09-01T06:49:28;20.10;;;18.65;;
32812;SDS011;19162;48.254;11.454;2022-09-01T06:52:35;19.40;;;18.00;;
32812;SDS011;19162;48.254;11.454;2022-09-01T06:55:37;18.88;;;17.38;;
32812;SDS011;19162;48.254;11.454;2022-09-01T06:58:39;19.23;;;17.70;;
32812;SDS011;19162;48.254;11.454;2022-09-01T07:01:40;19.00;;;17.58;;
32812;SDS011;19162;48.254;11.454;2022-09-01T07:04:41;19.93;;;18.30;;
32812;SDS011;19162;48.254;11.454;2022-09-01T07:07:52;20.13;;;18.50;;
32812;SDS011;19162;48.254;11.454;2022-09-01T07:10:54;19.45;;;17.95;;
32812;SDS011;19162;48.254;11.454;2022-09-01T07:14:04;19.13;;;17.67;;
32812;SDS011;19162;48.254;11.454;2022-09-01T07:17:04;18.83;;;17.33;;
32812;SDS011;19162;48.254;11.454;2022-09-01T07:20:06;16.55;;;15.43;;
32812;SDS011;19162;48.254;11.454;2022-09-01T07:23:08;16.02;;;14.82;;
32812;SDS011;19162;48.254;11.454;2022-09-01T07:26:08;16.53;;;15.23;;
32812;SDS011;19162;48.254;11.454;2022-09-01T07:29:09;15.75;;;14.25;;
32812;SDS011;19162;48.254;11.454;2022-09-01T07:32:09;16.30;;;14.90;;
32812;SDS011;19162;48.254;11.454;2022-09-01T07:35:10;14.57;;;13.47;;
32812;SDS011;19162;48.254;11.454;2022-09-01T07:38:11;13.90;;;12.90;;
32812;SDS011;19162;48.254;11.454;2022-09-01T07:41:12;15.05;;;13.93;;
32812;SDS011;19162;48.254;11.454;2022-09-01T07:44:12;15.30;;;14.10;;
32812;SDS011;19162;48.254;11.454;2022-09-01T07:47:13;14.00;;;12.90;;
32812;SDS011;19162;48.254;11.454;2022-09-01T07:50:15;13.50;;;12.35;;
32812;SDS011;19162;48.254;11.454;2022-09-01T07:53:16;19.60;;;13.60;;
32812;SDS011;19162;48.254;11.454;2022-09-01T07:56:18;14.57;;;13.38;;
32812;SDS011;19162;48.254;11.454;2022-09-01T07:59:19;12.85;;;11.95;;
32812;SDS011;19162;48.254;11.454;2022-09-01T08:02:20;13.68;;;12.68;;
32812;SDS011;19162;48.254;11.454;2022-09-01T08:05:20;14.18;;;13.00;;
32812;SDS011;19162;48.254;11.454;2022-09-01T08:08:25;14.50;;;13.30;;
32812;SDS011;19162;48.254;11.454;2022-09-01T08:11:27;13.38;;;12.45;;
32812;SDS011;19162;48.254;11.454;2022-09-01T08:14:27;13.57;;;12.57;;
32812;SDS011;19162;48.254;11.454;2022-09-01T08:17:27;13.52;;;12.43;;
32812;SDS011;19162;48.254;11.454;2022-09-01T08:20:28;13.32;;;12.35;;
32812;SDS011;19162;48.254;11.454;2022-09-01T08:23:29;13.45;;;12.43;;
32812;SDS011;19162;48.254;11.454;2022-09-01T08:26:29;14.27;;;13.07;;
32812;SDS011;19162;48.254;11.454;2022-09-01T08:29:29;14.38;;;13.38;;
32812;SDS011;19162;48.254;11.454;2022-09-01T08:32:30;13.48;;;12.57;;
32812;SDS011;19162;48.254;11.454;2022-09-01T08:35:31;12.85;;;11.95;;
32812;SDS011;19162;48.254;11.454;2022-09-01T08:38:31;12.07;;;11.07;;
32812;SDS011;19162;48.254;11.454;2022-09-01T08:44:57;12.52;;;11.63;;
32812;SDS011;19162;48.254;11.454;2022-09-01T08:48:05;11.95;;;11.15;;
32812;SDS011;19162;48.254;11.454;2022-09-01T08:51:13;11.68;;;10.85;;
32812;SDS011;19162;48.254;11.454;2022-09-01T08:54:25;10.73;;;9.90;;
32812;SDS011;19162;48.254;11.454;2022-09-01T08:57:32;10.98;;;10.07;;
32812;SDS011;19162;48.254;11.454;2022-09-01T09:00:36;10.00;;;9.25;;
32812;SDS011;19162;48.254;11.454;2022-09-01T09:09:58;9.13;;;8.50;;
32812;SDS011;19162;48.254;11.454;2022-09-01T09:13:06;10.75;;;7.72;;
32812;SDS011;19162;48.254;11.454;2022-09-01T09:16:09;23.17;;;9.80;;
32812;SDS011;19162;48.254;11.454;2022-09-01T09:22:20;10.20;;;7.78;;
32812;SDS011;19162;48.254;11.454;2022-09-01T09:25:20;31.15;;;11.60;;
32812;SDS011;19162;48.254;11.454;2022-09-01T09:28:20;34.13;;;11.87;;
32812;SDS011;19162;48.254;11.454;2022-09-01T09:31:24;37.27;;;12.17;;
32812;SDS011;19162;48.254;11.454;2022-09-01T09:34:28;18.02;;;8.70;;
32812;SDS011;19162;48.254;11.454;2022-09-01T09:37:31;4.20;;;3.90;;
32812;SDS011;19162;48.254;11.454;2022-09-01T09:40:31;13.50;;;8.33;;
32812;SDS011;19162;48.254;11.454;2022-09-01T09:43:33;13.30;;;6.45;;
32812;SDS011;19162;48.254;11.454;2022-09-01T09:49:35;9.67;;;7.03;;
32812;SDS011;19162;48.254;11.454;2022-09-01T09:52:35;6.97;;;6.13;;
32812;SDS011;19162;48.254;11.454;2022-09-01T09:55:36;13.43;;;5.23;;
32812;SDS011;19162;48.254;11.454;2022-09-01T09:58:49;4.43;;;4.03;;
32812;SDS011;19162;48.254;11.454;2022-09-01T10:01:49;4.25;;;3.70;;
32812;SDS011;19162;48.254;11.454;2022-09-01T10:04:50;5.78;;;4.22;;
32812;SDS011;19162;48.254;11.454;2022-09-01T10:07:51;7.20;;;4.32;;
32812;SDS011;19162;48.254;11.454;2022-09-01T10:10:52;7.07;;;4.45;;
32812;SDS011;19162;48.254;11.454;2022-09-01T10:13:53;10.93;;;3.67;;
32812;SDS011;19162;48.254;11.454;2022-09-01T10:16:55;9.73;;;3.80;;
32812;SDS011;19162;48.254;11.454;2022-09-01T10:23:05;4.03;;;3.55;;
32812;SDS011;19162;48.254;11.454;2022-09-01T10:26:08;5.20;;;4.20;;
32812;SDS011;19162;48.254;11.454;2022-09-01T10:29:12;4.30;;;3.90;;
32812;SDS011;19162;48.254;11.454;2022-09-01T10:32:18;4.85;;;4.45;;
32812;SDS011;19162;48.254;11.454;2022-09-01T10:35:24;3.50;;;3.20;;
32812;SDS011;19162;48.254;11.454;2022-09-01T10:38:26;18.85;;;5.40;;
32812;SDS011;19162;48.254;11.454;2022-09-01T10:44:55;3.58;;;3.22;;
32812;SDS011;19162;48.254;11.454;2022-09-01T10:47:56;3.65;;;3.30;;
32812;SDS011;19162;48.254;11.454;2022-09-01T10:54:49;3.30;;;2.80;;
32812;SDS011;19162;48.254;11.454;2022-09-01T11:00:47;3.63;;;3.33;;
32812;SDS011;19162;48.254;11.454;2022-09-01T11:03:52;4.05;;;2.97;;
32812;SDS011;19162;48.254;11.454;2022-09-01T11:06:54;4.30;;;2.90;;
32812;SDS011;19162;48.254;11.454;2022-09-01T11:13:40;3.20;;;3.00;;
32812;SDS011;19162;48.254;11.454;2022-09-01T11:16:42;4.55;;;4.22;;
32812;SDS011;19162;48.254;11.454;2022-09-01T11:20:09;5.47;;;4.35;;
32812;SDS011;19162;48.254;11.454;2022-09-01T11:23:25;3.70;;;3.40;;
32812;SDS011;19162;48.254;11.454;2022-09-01T11:32:51;2.75;;;2.45;;
32812;SDS011;19162;48.254;11.454;2022-09-01T11:36:00;2.75;;;2.50;;
32812;SDS011;19162;48.254;11.454;2022-09-01T11:39:46;3.83;;;3.45;;
32812;SDS011;19162;48.254;11.454;2022-09-01T11:42:38;3.40;;;3.17;;
32812;SDS011;19162;48.254;11.454;2022-09-01T11:48:59;2.92;;;2.72;;
32812;SDS011;19162;48.254;11.454;2022-09-01T11:52:01;3.22;;;2.95;;
32812;SDS011;19162;48.254;11.454;2022-09-01T11:55:02;3.17;;;2.90;;
32812;SDS011;19162;48.254;11.454;2022-09-01T11:58:03;4.55;;;3.38;;
32812;SDS011;19162;48.254;11.454;2022-09-01T12:04:29;2.75;;;2.50;;
32812;SDS011;19162;48.254;11.454;2022-09-01T12:07:41;2.63;;;2.42;;
32812;SDS011;19162;48.254;11.454;2022-09-01T12:10:44;4.70;;;3.50;;
32812;SDS011;19162;48.254;11.454;2022-09-01T12:13:54;14.15;;;4.65;;
32812;SDS011;19162;48.254;11.454;2022-09-01T12:16:57;6.43;;;3.95;;
32812;SDS011;19162;48.254;11.454;2022-09-01T12:23:18;3.33;;;3.03;;
32812;SDS011;19162;48.254;11.454;2022-09-01T12:26:26;4.37;;;3.20;;
32812;SDS011;19162;48.254;11.454;2022-09-01T12:29:28;5.63;;;3.45;;
32812;SDS011;19162;48.254;11.454;2022-09-01T12:32:28;3.67;;;3.38;;
32812;SDS011;19162;48.254;11.454;2022-09-01T12:35:29;4.00;;;3.50;;
32812;SDS011;19162;48.254;11.454;2022-09-01T12:38:30;3.08;;;2.88;;
32812;SDS011;19162;48.254;11.454;2022-09-01T12:50:43;3.90;;;2.92;;
32812;SDS011;19162;48.254;11.454;2022-09-01T12:53:54;2.80;;;2.60;;
32812;SDS011;19162;48.254;11.454;2022-09-01T12:56:54;3.05;;;2.80;;
32812;SDS011;19162;48.254;11.454;2022-09-01T13:00:12;2.80;;;2.35;;
32812;SDS011;19162;48.254;11.454;2022-09-01T13:03:15;2.83;;;2.45;;
32812;SDS011;19162;48.254;11.454;2022-09-01T13:06:16;2.25;;;2.15;;
32812;SDS011;19162;48.254;11.454;2022-09-01T13:09:17;2.17;;;1.98;;
32812;SDS011;19162;48.254;11.454;2022-09-01T13:12:19;2.33;;;2.10;;
32812;SDS011;19162;48.254;11.454;2022-09-01T13:15:20;2.33;;;2.08;;
32812;SDS011;19162;48.254;11.454;2022-09-01T13:18:21;2.33;;;2.20;;
32812;SDS011;19162;48.254;11.454;2022-09-01T13:21:21;3.13;;;2.40;;
32812;SDS011;19162;48.254;11.454;2022-09-01T13:24:22;2.90;;;2.53;;
32812;SDS011;19162;48.254;11.454;2022-09-01T13:27:22;2.97;;;2.03;;
32812;SDS011;19162;48.254;11.454;2022-09-01T13:30:23;2.40;;;2.20;;
32812;SDS011;19162;48.254;11.454;2022-09-01T13:33:24;7.35;;;2.42;;
32812;SDS011;19162;48.254;11.454;2022-09-01T13:36:24;2.00;;;1.80;;
32812;SDS011;19162;48.254;11.454;2022-09-01T13:39:24;2.20;;;1.93;;
32812;SDS011;19162;48.254;11.454;2022-09-01T13:42:25;2.03;;;1.83;;
32812;SDS011;19162;48.254;11.454;2022-09-01T13:45:25;4.80;;;2.25;;
32812;SDS011;19162;48.254;11.454;2022-09-01T13:48:25;3.37;;;2.00;;
32812;SDS011;19162;48.254;11.454;2022-09-01T13:51:27;3.25;;;2.38;;
32812;SDS011;19162;48.254;11.454;2022-09-01T13:54:28;3.70;;;2.13;;
32812;SDS011;19162;48.254;11.454;2022-09-01T13:57:28;3.60;;;2.13;;
32812;SDS011;19162;48.254;11.454;2022-09-01T14:00:31;2.50;;;2.00;;
32812;SDS011;19162;48.254;11.454;2022-09-01T14:03:31;6.38;;;2.22;;
32812;SDS011;19162;48.254;11.454;2022-09-01T14:06:31;2.00;;;1.90;;
32812;SDS011;19162;48.254;11.454;2022-09-01T14:09:31;2.40;;;2.00;;
32812;SDS011;19162;48.254;11.454;2022-09-01T14:12:32;6.30;;;2.40;;
32812;SDS011;19162;48.254;11.454;2022-09-01T14:15:32;3.13;;;2.07;;
32812;SDS011;19162;48.254;11.454;2022-09-01T14:18:33;3.53;;;1.58;;
32812;SDS011;19162;48.254;11.454;2022-09-01T14:21:35;1.90;;;1.80;;
32812;SDS011;19162;48.254;11.454;2022-09-01T14:24:36;1.50;;;1.40;;
32812;SDS011;19162;48.254;11.454;2022-09-01T14:27:37;2.15;;;1.63;;
32812;SDS011;19162;48.254;11.454;2022-09-01T14:30:38;3.25;;;1.92;;
32812;SDS011;19162;48.254;11.454;2022-09-01T14:33:39;2.08;;;1.60;;
32812;SDS011;19162;48.254;11.454;2022-09-01T14:36:39;1.70;;;1.55;;
32812;SDS011;19162;48.254;11.454;2022-09-01T14:39:39;1.90;;;1.70;;
32812;SDS011;19162;48.254;11.454;2022-09-01T14:42:40;1.70;;;1.60;;
32812;SDS011;19162;48.254;11.454;2022-09-01T14:51:46;3.63;;;1.70;;
32812;SDS011;19162;48.254;11.454;2022-09-01T14:54:47;4.00;;;1.50;;
32812;SDS011;19162;48.254;11.454;2022-09-01T14:57:47;2.95;;;2.05;;
32812;SDS011;19162;48.254;11.454;2022-09-01T15:00:48;3.83;;;1.70;;
32812;SDS011;19162;48.254;11.454;2022-09-01T15:03:49;1.63;;;1.38;;
32812;SDS011;19162;48.254;11.454;2022-09-01T15:06:49;3.65;;;1.52;;
32812;SDS011;19162;48.254;11.454;2022-09-01T15:09:49;1.60;;;1.50;;
32812;SDS011;19162;48.254;11.454;2022-09-01T15:12:50;1.40;;;1.30;;
32812;SDS011;19162;48.254;11.454;2022-09-01T15:15:50;3.03;;;1.87;;
32812;SDS011;19162;48.254;11.454;2022-09-01T15:18:51;1.50;;;1.40;;
32812;SDS011;19162;48.254;11.454;2022-09-01T15:21:51;1.80;;;1.50;;
32812;SDS011;19162;48.254;11.454;2022-09-01T15:24:52;1.60;;;1.50;;
32812;SDS011;19162;48.254;11.454;2022-09-01T15:27:52;3.50;;;1.47;;
32812;SDS011;19162;48.254;11.454;2022-09-01T15:30:52;1.63;;;1.30;;
32812;SDS011;19162;48.254;11.454;2022-09-01T15:33:53;1.40;;;1.30;;
32812;SDS011;19162;48.254;11.454;2022-09-01T15:36:54;1.50;;;1.40;;
32812;SDS011;19162;48.254;11.454;2022-09-01T15:39:54;2.85;;;1.42;;
32812;SDS011;19162;48.254;11.454;2022-09-01T15:42:55;1.30;;;1.20;;
32812;SDS011;19162;48.254;11.454;2022-09-01T15:45:56;1.45;;;1.33;;
32812;SDS011;19162;48.254;11.454;2022-09-01T15:48:58;1.30;;;1.20;;
32812;SDS011;19162;48.254;11.454;2022-09-01T15:51:58;2.00;;;1.30;;
32812;SDS011;19162;48.254;11.454;2022-09-01T15:54:59;2.28;;;1.65;;
32812;SDS011;19162;48.254;11.454;2022-09-01T15:57:59;4.50;;;1.27;;
32812;SDS011;19162;48.254;11.454;2022-09-01T16:00:59;2.78;;;1.30;;
32812;SDS011;19162;48.254;11.454;2022-09-01T16:03:59;2.30;;;1.33;;
32812;SDS011;19162;48.254;11.454;2022-09-01T16:07:00;3.95;;;1.40;;
32812;SDS011;19162;48.254;11.454;2022-09-01T16:10:00;1.57;;;1.47;;
32812;SDS011;19162;48.254;11.454;2022-09-01T16:13:00;1.23;;;1.13;;
32812;SDS011;19162;48.254;11.454;2022-09-01T16:20:01;1.70;;;1.05;;
32812;SDS011;19162;48.254;11.454;2022-09-01T16:22:42;4.20;;;1.42;;
32812;SDS011;19162;48.254;11.454;2022-09-01T16:25:43;1.67;;;1.33;;
32812;SDS011;19162;48.254;11.454;2022-09-01T16:28:47;1.50;;;1.20;;
32812;SDS011;19162;48.254;11.454;2022-09-01T16:31:49;2.28;;;1.50;;
32812;SDS011;19162;48.254;11.454;2022-09-01T16:34:52;2.22;;;1.40;;
32812;SDS011;19162;48.254;11.454;2022-09-01T16:38:11;3.78;;;1.48;;
32812;SDS011;19162;48.254;11.454;2022-09-01T16:50:59;1.27;;;1.17;;
32812;SDS011;19162;48.254;11.454;2022-09-01T16:54:04;1.55;;;1.42;;
32812;SDS011;19162;48.254;11.454;2022-09-01T17:00:14;2.03;;;1.60;;
32812;SDS011;19162;48.254;11.454;2022-09-01T17:03:18;1.52;;;1.30;;
32812;SDS011;19162;48.254;11.454;2022-09-01T17:06:28;1.23;;;1.13;;
32812;SDS011;19162;48.254;11.454;2022-09-01T17:09:34;3.85;;;1.65;;
32812;SDS011;19162;48.254;11.454;2022-09-01T17:12:43;2.65;;;1.95;;
32812;SDS011;19162;48.254;11.454;2022-09-01T17:15:51;2.95;;;1.63;;
32812;SDS011;19162;48.254;11.454;2022-09-01T17:18:53;1.92;;;1.45;;
32812;SDS011;19162;48.254;11.454;2022-09-01T17:21:58;1.33;;;1.20;;
32812;SDS011;19162;48.254;11.454;2022-09-01T17:25:07;1.75;;;1.65;;
32812;SDS011;19162;48.254;11.454;2022-09-01T17:28:21;2.20;;;2.00;;
32812;SDS011;19162;48.254;11.454;2022-09-01T17:38:02;4.60;;;2.03;;
32812;SDS011;19162;48.254;11.454;2022-09-01T17:44:16;4.32;;;1.42;;
32812;SDS011;19162;48.254;11.454;2022-09-01T18:08:54;2.40;;;2.20;;
32812;SDS011;19162;48.254;11.454;2022-09-01T18:12:00;4.13;;;2.42;;
32812;SDS011;19162;48.254;11.454;2022-09-01T18:15:03;5.63;;;2.90;;
32812;SDS011;19162;48.254;11.454;2022-09-01T18:18:19;3.83;;;2.28;;
32812;SDS011;19162;48.254;11.454;2022-09-01T18:21:28;2.08;;;1.88;;
32812;SDS011;19162;48.254;11.454;2022-09-01T18:24:34;2.13;;;1.88;;
32812;SDS011;19162;48.254;11.454;2022-09-01T18:27:38;1.75;;;1.50;;
32812;SDS011;19162;48.254;11.454;2022-09-01T18:30:47;2.40;;;2.20;;
32812;SDS011;19162;48.254;11.454;2022-09-01T18:36:57;2.05;;;1.73;;
32812;SDS011;19162;48.254;11.454;2022-09-01T18:43:25;4.10;;;1.73;;
32812;SDS011;19162;48.254;11.454;2022-09-01T18:46:38;4.70;;;2.05;;
32812;SDS011;19162;48.254;11.454;2022-09-01T18:55:54;2.00;;;1.80;;
32812;SDS011;19162;48.254;11.454;2022-09-01T18:59:13;3.17;;;1.65;;
32812;SDS011;19162;48.254;11.454;2022-09-01T19:14:57;1.80;;;1.50;;
32812;SDS011;19162;48.254;11.454;2022-09-01T19:21:00;2.07;;;1.83;;
32812;SDS011;19162;48.254;11.454;2022-09-01T19:24:05;2.75;;;1.88;;
32812;SDS011;19162;48.254;11.454;2022-09-01T19:27:14;3.65;;;1.98;;
32812;SDS011;19162;48.254;11.454;2022-09-01T19:30:14;4.45;;;1.67;;
32812;SDS011;19162;48.254;11.454;2022-09-01T19:33:16;2.00;;;1.50;;
32812;SDS011;19162;48.254;11.454;2022-09-01T19:36:22;2.65;;;1.40;;
32812;SDS011;19162;48.254;11.454;2022-09-01T19:42:27;2.17;;;1.73;;
32812;SDS011;19162;48.254;11.454;2022-09-01T19:48:53;1.75;;;1.60;;
32812;SDS011;19162;48.254;11.454;2022-09-01T19:55:01;3.93;;;2.07;;
32812;SDS011;19162;48.254;11.454;2022-09-01T19:58:21;2.60;;;1.60;;
32812;SDS011;19162;48.254;11.454;2022-09-01T20:04:49;2.55;;;1.60;;
32812;SDS011;19162;48.254;11.454;2022-09-01T20:08:11;2.30;;;2.00;;
32812;SDS011;19162;48.254;11.454;2022-09-01T20:11:14;2.45;;;1.73;;
32812;SDS011;19162;48.254;11.454;2022-09-01T20:20:41;1.85;;;1.75;;
32812;SDS011;19162;48.254;11.454;2022-09-01T20:23:46;3.08;;;1.70;;
32812;SDS011;19162;48.254;11.454;2022-09-01T20:26:57;5.22;;;1.95;;
32812;SDS011;19162;48.254;11.454;2022-09-01T20:30:06;4.03;;;1.92;;
32812;SDS011;19162;48.254;11.454;2022-09-01T20:36:59;5.35;;;2.13;;
32812;SDS011;19162;48.254;11.454;2022-09-01T20:40:07;3.17;;;2.05;;
32812;SDS011;19162;48.254;11.454;2022-09-01T20:43:19;3.05;;;2.25;;